Time;durP1;ratioP1;P1;durP2;ratioP2;P2;SDS_P1;SDS_P2;PMS_P1;PMS_P2;Temp;Humidity;BMP_temperature;BMP_pressure;BME280_temperature;BME280_humidity;BME280_pressure;Samples;Min_cycle;Max_cycle;Signal;HPM_P1;HPM_P2
2021/05/22 00:01:39;;;;;;;1.00;0.80;;;5.70;99.90;;;;;;5052775;28;20439;-68
2021/05/22 00:04:06;;;;;;;3.47;1.30;;;5.70;99.90;;;;;;5052701;28;20430;-69
2021/05/22 00:06:33;;;;;;;4.20;1.00;;;5.70;99.90;;;;;;5052647;28;20467;-69
2021/05/22 00:09:00;;;;;;;1.30;0.90;;;5.70;99.90;;;;;;5052258;28;20524;-70
2021/05/22 00:11:28;;;;;;;1.40;1.00;;;5.70;99.90;;;;;;5052616;28;20444;-69
2021/05/22 00:13:56;;;;;;;1.13;1.00;;;5.60;99.90;;;;;;5052378;28;20434;-69
2021/05/22 00:16:23;;;;;;;1.10;1.00;;;5.60;99.90;;;;;;5052516;28;20447;-69
2021/05/22 00:18:49;;;;;;;1.50;0.80;;;5.60;99.90;;;;;;5052510;28;20440;-70
2021/05/22 00:21:16;;;;;;;1.50;1.20;;;5.60;99.90;;;;;;5052007;28;20908;-69
2021/05/22 00:23:43;;;;;;;1.00;0.90;;;5.60;99.90;;;;;;5052061;28;20500;-69
2021/05/22 00:26:10;;;;;;;4.43;0.80;;;5.60;99.90;;;;;;5052174;28;20492;-69
2021/05/22 00:28:37;;;;;;;1.00;0.90;;;5.60;99.90;;;;;;5052490;28;20477;-69
2021/05/22 00:31:04;;;;;;;1.00;0.90;;;5.60;99.90;;;;;;5052424;28;20427;-69
2021/05/22 00:33:31;;;;;;;2.77;1.00;;;5.60;99.90;;;;;;5052069;28;20871;-69
2021/05/22 00:35:57;;;;;;;1.10;0.93;;;5.60;99.90;;;;;;5051187;28;20443;-70
2021/05/22 00:38:24;;;;;;;0.90;0.80;;;5.70;99.90;;;;;;5052119;28;20434;-69
2021/05/22 00:40:51;;;;;;;1.07;0.97;;;5.60;99.90;;;;;;5051873;28;21017;-69
2021/05/22 00:43:19;;;;;;;1.20;0.90;;;5.50;99.90;;;;;;5051855;28;20427;-71
2021/05/22 00:45:45;;;;;;;1.57;1.27;;;5.60;99.90;;;;;;5052298;28;20493;-69
2021/05/22 00:48:12;;;;;;;1.40;1.13;;;5.60;99.90;;;;;;5052066;28;20971;-69
2021/05/22 00:50:43;;;;;;;2.17;1.50;;;5.60;99.90;;;;;;5051787;28;20424;-69
2021/05/22 00:53:10;;;;;;;1.47;1.13;;;5.70;99.90;;;;;;5051716;28;20430;-69
2021/05/22 00:55:37;;;;;;;1.23;1.13;;;5.60;99.90;;;;;;5051529;28;20472;-69
2021/05/22 00:58:05;;;;;;;2.70;0.97;;;5.70;99.90;;;;;;5051794;28;20477;-69
2021/05/22 01:00:42;;;;;;;1.57;1.07;;;5.60;99.90;;;;;;5051807;28;20431;-69
2021/05/22 01:03:10;;;;;;;1.30;0.97;;;5.70;99.90;;;;;;5051349;28;20485;-69
2021/05/22 01:05:42;;;;;;;2.17;1.40;;;5.70;99.90;;;;;;5051534;28;20459;-70
2021/05/22 01:08:15;;;;;;;1.50;1.20;;;5.70;99.90;;;;;;5051508;28;20484;-70
2021/05/22 01:10:43;;;;;;;1.07;0.90;;;5.70;99.90;;;;;;5051255;28;20439;-69
2021/05/22 01:13:13;;;;;;;1.77;0.90;;;5.70;99.90;;;;;;5051152;28;20462;-70
2021/05/22 01:15:43;;;;;;;2.10;0.80;;;5.70;99.90;;;;;;5051336;28;20471;-69
2021/05/22 01:18:11;;;;;;;1.00;0.90;;;5.70;99.90;;;;;;5051479;28;20449;-69
2021/05/22 01:20:40;;;;;;;1.30;1.00;;;5.70;99.90;;;;;;5051450;28;20945;-69
2021/05/22 01:23:20;;;;;;;1.90;1.10;;;5.70;99.90;;;;;;5050328;28;20866;-70
2021/05/22 01:25:50;;;;;;;1.30;1.10;;;5.70;99.90;;;;;;5050984;28;20454;-69
2021/05/22 01:28:17;;;;;;;1.13;1.03;;;5.60;99.90;;;;;;5051323;28;20556;-69
2021/05/22 01:30:46;;;;;;;2.03;1.00;;;5.70;99.90;;;;;;5051110;28;20484;-69
2021/05/22 01:33:13;;;;;;;1.23;1.13;;;5.70;99.90;;;;;;5050968;28;20435;-68
2021/05/22 01:35:41;;;;;;;1.10;1.00;;;5.70;99.90;;;;;;5051007;28;20447;-70
2021/05/22 01:38:08;;;;;;;1.00;0.80;;;5.70;99.90;;;;;;5051101;28;20831;-70
2021/05/22 01:40:35;;;;;;;1.43;1.10;;;5.70;99.90;;;;;;5050554;28;20439;-70
2021/05/22 01:43:03;;;;;;;1.00;0.90;;;5.70;99.90;;;;;;5050971;28;20424;-69
2021/05/22 01:45:33;;;;;;;0.90;0.80;;;5.70;99.90;;;;;;5050715;28;20535;-69
2021/05/22 01:48:02;;;;;;;0.90;0.77;;;5.60;99.90;;;;;;5050839;28;20496;-70
2021/05/22 01:50:32;;;;;;;1.30;0.87;;;5.70;99.90;;;;;;5050782;28;20448;-69
2021/05/22 01:53:01;;;;;;;1.10;0.80;;;5.70;99.90;;;;;;5050737;28;20443;-69
2021/05/22 01:55:29;;;;;;;2.93;0.80;;;5.70;99.90;;;;;;5050589;28;20862;-68
2021/05/22 01:57:56;;;;;;;1.13;0.90;;;5.70;99.90;;;;;;5050878;28;20514;-69
2021/05/22 02:00:24;;;;;;;1.27;0.80;;;5.70;99.90;;;;;;5050870;28;20461;-69
2021/05/22 02:02:57;;;;;;;9.70;1.00;;;5.70;99.90;;;;;;5050646;28;20473;-70
2021/05/22 02:05:25;;;;;;;1.10;0.80;;;5.70;99.90;;;;;;5050287;28;20783;-69
2021/05/22 02:07:55;;;;;;;1.10;0.90;;;5.70;99.90;;;;;;5050779;28;20452;-69
2021/05/22 02:10:22;;;;;;;1.43;1.03;;;5.70;99.90;;;;;;5050347;28;20444;-69
2021/05/22 02:12:49;;;;;;;1.03;0.83;;;5.70;99.90;;;;;;5050559;28;20957;-69
2021/05/22 02:15:17;;;;;;;1.00;0.90;;;5.70;99.90;;;;;;5050500;28;20425;-69
2021/05/22 02:17:46;;;;;;;1.20;0.90;;;5.70;99.90;;;;;;5050664;28;20449;-69
2021/05/22 02:20:16;;;;;;;2.30;0.80;;;5.70;99.90;;;;;;5050435;28;20765;-69
2021/05/22 02:22:44;;;;;;;1.00;0.73;;;5.70;99.90;;;;;;5050756;28;20420;-69
2021/05/22 02:25:13;;;;;;;3.23;1.00;;;5.70;99.90;;;;;;5050043;28;20526;-69
2021/05/22 02:27:40;;;;;;;0.87;0.73;;;5.70;99.90;;;;;;5050622;28;20448;-69
2021/05/22 02:30:08;;;;;;;1.57;1.00;;;5.70;99.90;;;;;;5050270;28;20604;-69
2021/05/22 02:32:36;;;;;;;1.20;0.80;;;5.70;99.90;;;;;;5049907;28;20438;-69
2021/05/22 02:35:06;;;;;;;2.73;0.87;;;5.70;99.90;;;;;;5049794;28;20448;-69
2021/05/22 02:37:34;;;;;;;1.93;1.10;;;5.70;99.90;;;;;;5050615;28;20441;-69
2021/05/22 02:40:05;;;;;;;0.90;0.80;;;5.70;99.90;;;;;;5050222;28;20851;-70
2021/05/22 02:42:35;;;;;;;1.77;1.00;;;5.80;99.90;;;;;;5050535;28;20423;-69
2021/05/22 02:45:03;;;;;;;0.90;0.80;;;5.70;99.90;;;;;;5050214;28;20427;-69
2021/05/22 02:47:31;;;;;;;1.10;1.00;;;5.70;99.90;;;;;;5050254;28;20448;-69
2021/05/22 02:50:03;;;;;;;0.97;0.87;;;5.70;99.90;;;;;;5050154;28;20813;-69
2021/05/22 02:52:32;;;;;;;2.60;0.90;;;5.80;99.90;;;;;;5050276;28;20439;-69
2021/05/22 02:55:00;;;;;;;0.90;0.80;;;5.80;99.90;;;;;;5049912;28;20515;-69
2021/05/22 02:57:30;;;;;;;0.90;0.77;;;5.80;99.90;;;;;;5050174;28;20439;-69
2021/05/22 02:59:57;;;;;;;0.80;0.70;;;5.80;99.90;;;;;;5035959;28;20536;-69
2021/05/22 03:02:24;;;;;;;2.03;1.00;;;5.80;99.90;;;;;;5054745;28;20456;-70
2021/05/22 03:04:51;;;;;;;1.07;0.93;;;5.80;99.90;;;;;;5054033;28;20935;-69
2021/05/22 03:07:19;;;;;;;0.87;0.73;;;5.80;99.90;;;;;;5053710;28;20455;-69
2021/05/22 03:09:47;;;;;;;0.90;0.70;;;5.80;99.90;;;;;;5053608;28;21065;-69
2021/05/22 03:12:19;;;;;;;0.90;0.70;;;5.80;99.90;;;;;;5053606;28;20430;-69
2021/05/22 03:14:46;;;;;;;0.83;0.70;;;5.80;99.90;;;;;;5054050;28;20438;-68
2021/05/22 03:17:13;;;;;;;1.17;0.90;;;5.90;99.90;;;;;;5053439;28;21016;-68
2021/05/22 03:19:40;;;;;;;0.97;0.70;;;5.80;99.90;;;;;;5053816;28;20946;-68
2021/05/22 03:22:07;;;;;;;1.00;0.77;;;5.80;99.90;;;;;;5053569;28;20518;-68
2021/05/22 03:24:33;;;;;;;0.90;0.80;;;5.80;99.90;;;;;;5053097;28;20531;-68
2021/05/22 03:27:01;;;;;;;0.87;0.77;;;5.80;99.90;;;;;;5053427;28;20444;-68
2021/05/22 03:29:28;;;;;;;1.00;0.70;;;5.80;99.90;;;;;;5053468;28;20493;-68
2021/05/22 03:31:55;;;;;;;1.10;0.80;;;5.80;99.90;;;;;;5053445;28;20913;-68
2021/05/22 03:34:21;;;;;;;1.40;1.00;;;5.80;99.90;;;;;;5052468;28;20479;-68
2021/05/22 03:36:48;;;;;;;0.80;0.70;;;5.70;99.90;;;;;;5053243;28;20457;-67
2021/05/22 03:39:15;;;;;;;1.00;0.70;;;5.70;99.90;;;;;;5053212;28;20931;-68
2021/05/22 03:41:42;;;;;;;0.90;0.73;;;5.70;99.90;;;;;;5053153;28;20869;-68
2021/05/22 03:44:09;;;;;;;0.90;0.80;;;5.70;99.90;;;;;;5053134;28;20423;-68
2021/05/22 03:46:36;;;;;;;0.90;0.70;;;5.70;99.90;;;;;;5053251;28;20688;-67
2021/05/22 03:49:03;;;;;;;0.80;0.60;;;5.70;99.90;;;;;;5053082;28;20466;-68
2021/05/22 03:51:30;;;;;;;1.47;0.70;;;5.70;99.90;;;;;;5053037;28;20542;-68
2021/05/22 03:53:57;;;;;;;1.30;0.87;;;5.60;99.90;;;;;;5052683;28;20428;-68
2021/05/22 03:56:24;;;;;;;0.90;0.80;;;5.60;99.90;;;;;;5052658;28;20446;-68
2021/05/22 03:58:50;;;;;;;2.50;1.00;;;5.60;99.90;;;;;;5053040;28;20434;-68
2021/05/22 04:01:18;;;;;;;0.90;0.70;;;5.60;99.90;;;;;;5052899;28;20443;-67
2021/05/22 04:03:45;;;;;;;0.80;0.70;;;5.60;99.90;;;;;;5052809;28;20931;-67
2021/05/22 04:06:11;;;;;;;1.10;0.90;;;5.60;99.90;;;;;;5052794;28;20546;-68
2021/05/22 04:08:38;;;;;;;2.23;0.90;;;5.70;99.90;;;;;;5052588;28;20463;-68
2021/05/22 04:11:05;;;;;;;0.90;0.70;;;5.70;99.90;;;;;;5051440;28;20492;-68
2021/05/22 04:13:32;;;;;;;0.90;0.70;;;5.80;99.90;;;;;;5052523;28;20444;-68
2021/05/22 04:15:59;;;;;;;1.10;1.00;;;5.80;99.90;;;;;;5052607;28;20450;-68
2021/05/22 04:18:26;;;;;;;2.47;1.10;;;5.80;99.90;;;;;;5052454;28;20530;-68
2021/05/22 04:20:53;;;;;;;2.40;1.33;;;5.80;99.90;;;;;;5052204;28;20437;-68
2021/05/22 04:23:20;;;;;;;4.80;1.17;;;5.80;99.90;;;;;;5052234;28;20423;-68
2021/05/22 04:25:46;;;;;;;1.23;0.90;;;5.90;99.90;;;;;;5052244;28;20999;-68
2021/05/22 04:28:13;;;;;;;1.00;0.90;;;5.90;99.90;;;;;;5052411;28;20462;-68
2021/05/22 04:30:40;;;;;;;1.00;0.80;;;5.90;99.90;;;;;;5052342;28;20433;-68
2021/05/22 04:33:07;;;;;;;2.30;0.90;;;5.90;99.90;;;;;;5052278;28;21220;-68
2021/05/22 04:35:35;;;;;;;2.73;1.67;;;5.90;99.90;;;;;;5052086;28;20577;-68
2021/05/22 04:38:02;;;;;;;1.10;0.90;;;5.90;99.90;;;;;;5052025;28;20449;-68
2021/05/22 04:40:28;;;;;;;1.20;0.77;;;5.90;99.90;;;;;;5051867;28;20446;-68
2021/05/22 04:42:55;;;;;;;1.10;0.70;;;6.00;99.90;;;;;;5051264;28;20876;-68
2021/05/22 04:45:22;;;;;;;2.30;0.80;;;6.00;99.90;;;;;;5051811;28;20432;-68
2021/05/22 04:47:49;;;;;;;2.60;0.90;;;5.90;99.90;;;;;;5052008;28;20462;-68
2021/05/22 04:50:15;;;;;;;1.07;0.97;;;6.00;99.90;;;;;;5051883;28;20478;-68
2021/05/22 04:52:43;;;;;;;2.37;1.27;;;5.90;99.90;;;;;;5051761;28;20537;-68
2021/05/22 04:55:11;;;;;;;1.27;1.17;;;5.90;99.90;;;;;;5051348;28;20971;-68
2021/05/22 04:57:37;;;;;;;1.53;1.23;;;5.90;99.90;;;;;;5051858;28;20856;-68
2021/05/22 05:00:07;;;;;;;0.90;0.80;;;5.90;99.90;;;;;;5051732;28;20427;-68
2021/05/22 05:02:34;;;;;;;3.17;1.53;;;6.00;99.90;;;;;;5051882;28;20439;-68
2021/05/22 05:05:00;;;;;;;1.23;0.90;;;6.00;99.90;;;;;;5051504;28;21001;-68
2021/05/22 05:07:27;;;;;;;1.47;0.90;;;6.10;99.90;;;;;;5051588;28;20447;-68
2021/05/22 05:09:55;;;;;;;1.97;1.30;;;6.10;99.90;;;;;;5051200;28;21002;-68
2021/05/22 05:12:23;;;;;;;1.07;0.80;;;6.10;99.90;;;;;;5051453;28;20433;-68
2021/05/22 05:14:50;;;;;;;1.87;1.30;;;6.20;99.90;;;;;;5051327;28;20423;-67
2021/05/22 05:17:17;;;;;;;2.80;1.23;;;6.20;99.90;;;;;;5051378;28;20534;-68
2021/05/22 05:19:44;;;;;;;0.90;0.70;;;6.20;99.90;;;;;;5051011;28;20446;-69
2021/05/22 05:22:10;;;;;;;2.20;1.13;;;6.30;99.90;;;;;;5048269;28;20454;-67
2021/05/22 05:24:37;;;;;;;1.57;1.00;;;6.30;99.90;;;;;;5061489;28;20911;-67
2021/05/22 05:27:06;;;;;;;1.40;1.00;;;6.40;99.90;;;;;;5070868;28;21029;-68
2021/05/22 05:29:32;;;;;;;1.80;0.90;;;6.40;99.90;;;;;;5052627;28;20952;-68
2021/05/22 05:31:59;;;;;;;2.50;1.00;;;6.50;99.90;;;;;;5046316;28;20432;-67
2021/05/22 05:34:26;;;;;;;1.10;0.90;;;6.60;99.90;;;;;;5050494;28;20429;-68
2021/05/22 05:36:52;;;;;;;1.37;1.00;;;6.70;99.90;;;;;;5050881;28;20530;-68
2021/05/22 05:39:19;;;;;;;1.30;1.10;;;6.60;99.90;;;;;;5050431;28;20437;-66
2021/05/22 05:41:46;;;;;;;1.73;1.00;;;6.60;99.90;;;;;;5052500;28;20510;-68
2021/05/22 05:44:13;;;;;;;1.73;1.27;;;6.60;99.90;;;;;;5050357;28;20439;-68
2021/05/22 05:46:40;;;;;;;1.97;1.40;;;6.60;99.90;;;;;;5050801;28;20485;-68
2021/05/22 05:49:07;;;;;;;1.33;1.23;;;6.70;99.90;;;;;;5050757;28;20473;-68
2021/05/22 05:51:33;;;;;;;1.20;0.80;;;6.80;99.90;;;;;;5050846;28;20427;-68
2021/05/22 05:54:00;;;;;;;10.40;1.20;;;6.80;99.90;;;;;;5050603;28;20427;-68
2021/05/22 05:56:27;;;;;;;2.60;1.07;;;6.90;99.90;;;;;;5050270;28;20447;-68
2021/05/22 05:58:54;;;;;;;1.70;1.00;;;6.90;99.90;;;;;;5050434;28;20518;-68
2021/05/22 06:01:21;;;;;;;1.47;0.83;;;6.90;99.90;;;;;;5050325;28;20510;-70
2021/05/22 06:03:49;;;;;;;1.20;1.00;;;6.90;99.90;;;;;;5050472;28;20815;-69
2021/05/22 06:06:15;;;;;;;1.20;1.10;;;7.00;99.90;;;;;;5050224;28;20466;-69
2021/05/22 06:08:43;;;;;;;2.70;1.53;;;7.10;99.90;;;;;;5050425;28;20831;-70
2021/05/22 06:11:13;;;;;;;1.43;1.20;;;7.10;99.90;;;;;;5048456;28;20440;-71
2021/05/22 06:13:39;;;;;;;10.17;1.30;;;7.10;99.90;;;;;;5047877;28;20745;-70
2021/05/22 06:16:19;;;;;;;1.30;1.20;;;7.00;99.90;;;;;;5050288;28;20467;-70
2021/05/22 06:18:47;;;;;;;2.57;1.40;;;7.00;99.90;;;;;;5050576;28;20454;-69
2021/05/22 06:21:16;;;;;;;1.77;1.00;;;7.10;99.90;;;;;;5050596;28;20439;-70
2021/05/22 06:23:43;;;;;;;2.30;1.37;;;7.20;99.90;;;;;;5050941;28;20441;-70
2021/05/22 06:26:10;;;;;;;2.03;1.33;;;7.20;99.90;;;;;;5050070;28;20567;-70
2021/05/22 06:28:36;;;;;;;3.67;1.33;;;7.30;99.90;;;;;;5049275;28;20548;-70
2021/05/22 06:31:05;;;;;;;3.47;1.00;;;7.30;99.90;;;;;;5050366;28;20446;-69
2021/05/22 06:33:34;;;;;;;2.33;1.07;;;7.30;99.90;;;;;;5051517;28;20497;-70
2021/05/22 06:36:02;;;;;;;14.63;1.50;;;7.30;99.90;;;;;;5054503;28;20447;-70
2021/05/22 06:38:29;;;;;;;2.43;1.17;;;7.40;99.90;;;;;;5054466;28;20804;-70
2021/05/22 06:40:56;;;;;;;1.50;1.30;;;7.50;99.90;;;;;;5054257;28;20927;-71
2021/05/22 06:43:23;;;;;;;3.13;1.53;;;7.60;99.90;;;;;;5053967;28;20516;-71
2021/05/22 06:45:58;;;;;;;7.60;1.60;;;7.70;99.90;;;;;;5054369;28;21026;-70
2021/05/22 06:48:26;;;;;;;1.50;1.30;;;7.70;99.90;;;;;;5053987;28;20473;-70
2021/05/22 06:50:53;;;;;;;2.93;1.10;;;7.80;99.90;;;;;;5052160;28;20451;-70
2021/05/22 06:53:21;;;;;;;1.57;1.20;;;7.90;99.90;;;;;;5035449;28;20445;-69
2021/05/22 06:55:47;;;;;;;2.00;1.10;;;7.80;99.90;;;;;;5054127;28;20538;-71
2021/05/22 06:58:14;;;;;;;6.53;1.40;;;7.90;99.90;;;;;;5054388;28;20830;-70
2021/05/22 07:00:41;;;;;;;1.43;1.20;;;7.90;99.90;;;;;;5054147;28;20515;-71
2021/05/22 07:03:08;;;;;;;1.57;1.40;;;7.90;99.90;;;;;;5053827;28;20428;-72
2021/05/22 07:05:34;;;;;;;3.63;1.53;;;7.80;99.90;;;;;;5053892;28;20440;-70
2021/05/22 07:08:02;;;;;;;3.53;1.17;;;7.80;99.90;;;;;;5053855;28;20442;-73
2021/05/22 07:10:30;;;;;;;3.90;1.27;;;7.80;99.90;;;;;;5053835;28;20474;-70
2021/05/22 07:12:57;;;;;;;2.73;1.57;;;7.90;99.90;;;;;;5053584;28;20449;-71
2021/05/22 07:15:24;;;;;;;4.30;1.33;;;7.80;99.90;;;;;;5053734;28;20448;-71
2021/05/22 07:17:50;;;;;;;4.90;1.10;;;7.80;99.90;;;;;;5053882;28;20446;-70
2021/05/22 07:20:17;;;;;;;4.80;1.40;;;7.80;99.90;;;;;;5053819;28;20487;-70
2021/05/22 07:22:44;;;;;;;4.50;1.60;;;8.00;99.90;;;;;;5053778;28;20527;-70
2021/05/22 07:25:12;;;;;;;2.27;1.20;;;8.10;99.90;;;;;;5053443;28;20456;-70
2021/05/22 07:27:40;;;;;;;6.77;1.53;;;8.20;99.90;;;;;;5052783;28;20458;-71
2021/05/22 07:30:09;;;;;;;6.73;1.73;;;8.30;99.90;;;;;;5053287;28;20556;-69
2021/05/22 07:32:36;;;;;;;2.20;1.30;;;8.60;99.90;;;;;;5053560;28;20443;-70
2021/05/22 07:35:03;;;;;;;10.70;1.80;;;8.60;99.90;;;;;;5053406;28;20427;-70
2021/05/22 07:37:30;;;;;;;4.40;2.07;;;8.50;99.90;;;;;;5053294;28;21005;-70
2021/05/22 07:39:57;;;;;;;5.00;1.10;;;8.40;99.90;;;;;;5053252;28;20432;-70
2021/05/22 07:42:24;;;;;;;4.80;1.23;;;8.40;99.90;;;;;;5053513;28;20429;-71
2021/05/22 07:44:52;;;;;;;1.60;1.10;;;8.40;99.90;;;;;;5051912;28;20464;-70
2021/05/22 07:47:19;;;;;;;2.13;1.10;;;8.60;99.90;;;;;;5053062;28;20464;-70
2021/05/22 07:49:46;;;;;;;2.70;1.50;;;8.40;99.90;;;;;;5052998;28;20480;-71
2021/05/22 07:52:13;;;;;;;5.43;1.30;;;8.50;99.90;;;;;;5053076;28;20438;-70
2021/05/22 07:54:40;;;;;;;9.23;1.13;;;8.50;99.90;;;;;;5052945;28;20424;-70
2021/05/22 07:57:09;;;;;;;3.20;1.40;;;8.50;99.90;;;;;;5052411;28;20526;-70
2021/05/22 07:59:36;;;;;;;2.30;0.90;;;8.60;99.90;;;;;;5052460;28;20464;-70
2021/05/22 08:02:05;;;;;;;4.93;1.23;;;8.70;99.90;;;;;;5053052;28;20455;-70
2021/05/22 08:04:32;;;;;;;2.60;1.10;;;8.80;99.90;;;;;;5052718;28;20481;-70
2021/05/22 08:06:59;;;;;;;2.07;1.10;;;8.70;99.90;;;;;;5052762;28;20452;-70
2021/05/22 08:09:26;;;;;;;5.83;1.00;;;8.60;99.90;;;;;;5052584;28;20474;-71
2021/05/22 08:11:53;;;;;;;5.37;1.27;;;8.60;99.90;;;;;;5052745;28;20444;-71
2021/05/22 08:14:20;;;;;;;4.00;1.20;;;8.50;99.90;;;;;;5052120;28;20456;-71
2021/05/22 08:16:47;;;;;;;1.90;1.20;;;8.60;99.90;;;;;;5052734;28;20455;-70
2021/05/22 08:19:15;;;;;;;2.10;1.33;;;8.50;99.90;;;;;;5052380;28;20455;-69
2021/05/22 08:21:42;;;;;;;3.43;1.50;;;8.50;99.90;;;;;;5052630;28;20452;-70
2021/05/22 08:24:10;;;;;;;4.60;1.00;;;8.70;99.90;;;;;;5052137;28;20492;-70
2021/05/22 08:26:38;;;;;;;3.83;1.13;;;9.00;99.90;;;;;;5052272;28;20469;-70
2021/05/22 08:29:06;;;;;;;1.50;1.30;;;9.10;99.90;;;;;;5051494;28;20490;-71
2021/05/22 08:31:34;;;;;;;2.70;1.53;;;9.20;99.90;;;;;;5052589;28;20441;-70
2021/05/22 08:34:01;;;;;;;2.57;1.10;;;9.20;99.90;;;;;;5052424;28;20433;-70
2021/05/22 08:36:30;;;;;;;1.80;1.07;;;9.10;99.90;;;;;;5052167;28;20462;-70
2021/05/22 08:38:56;;;;;;;1.43;1.17;;;9.20;99.90;;;;;;5052324;28;20489;-70
2021/05/22 08:41:23;;;;;;;1.93;0.80;;;9.40;99.90;;;;;;5052158;28;20438;-70
2021/05/22 08:43:50;;;;;;;2.80;1.00;;;9.50;99.90;;;;;;5051720;28;20441;-69
2021/05/22 08:46:18;;;;;;;5.33;1.30;;;9.50;99.90;;;;;;5051727;28;20454;-70
2021/05/22 08:48:48;;;;;;;2.80;1.20;;;9.40;99.90;;;;;;5051874;28;20470;-71
2021/05/22 08:51:15;;;;;;;1.37;1.00;;;9.40;99.90;;;;;;5052070;28;20505;-70
2021/05/22 08:53:44;;;;;;;0.90;0.80;;;9.60;99.90;;;;;;5050564;28;20461;-70
2021/05/22 08:56:11;;;;;;;1.70;1.20;;;9.70;99.90;;;;;;5051327;28;21056;-69
2021/05/22 08:58:38;;;;;;;2.33;0.90;;;9.80;99.90;;;;;;5052364;28;20539;-70
2021/05/22 09:01:05;;;;;;;2.90;1.63;;;10.10;99.90;;;;;;5051719;28;20448;-71
2021/05/22 09:03:35;;;;;;;2.33;1.23;;;10.20;99.90;;;;;;5051002;28;20450;-70
2021/05/22 09:06:03;;;;;;;1.90;1.20;;;10.20;99.90;;;;;;5051713;28;21041;-70
2021/05/22 09:08:32;;;;;;;1.53;1.10;;;10.20;99.90;;;;;;5051681;28;20427;-69
2021/05/22 09:11:03;;;;;;;5.60;1.10;;;10.40;99.90;;;;;;5051191;28;20451;-69
2021/05/22 09:13:34;;;;;;;5.33;1.60;;;10.50;99.90;;;;;;5051142;28;20466;-70
2021/05/22 09:16:03;;;;;;;2.07;1.00;;;10.60;99.90;;;;;;5051127;28;20538;-70
2021/05/22 09:18:33;;;;;;;2.13;1.33;;;10.60;99.90;;;;;;5051190;28;21126;-69
2021/05/22 09:21:01;;;;;;;2.33;1.10;;;10.50;99.90;;;;;;5050563;28;20423;-70
2021/05/22 09:23:30;;;;;;;1.87;1.10;;;10.20;99.90;;;;;;5050423;28;20464;-70
2021/05/22 09:25:58;;;;;;;5.20;1.10;;;10.30;99.90;;;;;;5051018;28;20459;-71
2021/05/22 09:28:27;;;;;;;3.90;1.43;;;10.30;99.90;;;;;;5050527;28;20489;-71
2021/05/22 09:30:56;;;;;;;2.70;2.40;;;10.40;99.90;;;;;;5051080;28;20443;-72
2021/05/22 09:33:25;;;;;;;1.53;0.90;;;10.70;99.90;;;;;;5050930;28;20426;-70
2021/05/22 09:35:53;;;;;;;5.10;1.27;;;10.70;99.90;;;;;;5051485;28;20457;-70
2021/05/22 09:38:21;;;;;;;7.33;1.57;;;10.60;99.90;;;;;;5050899;28;21070;-69
2021/05/22 09:40:48;;;;;;;1.57;0.90;;;10.80;99.90;;;;;;5050950;28;20431;-70
2021/05/22 09:43:17;;;;;;;2.60;0.93;;;11.00;99.90;;;;;;5051012;28;20427;-71
2021/05/22 09:45:45;;;;;;;1.50;0.70;;;11.30;99.90;;;;;;5051218;28;20462;-71
2021/05/22 09:48:14;;;;;;;1.90;1.30;;;11.60;99.90;;;;;;5051269;28;20943;-71
2021/05/22 09:50:43;;;;;;;1.30;0.97;;;11.50;99.90;;;;;;5050914;28;20476;-70
2021/05/22 09:53:37;;;;;;;2.20;1.20;;;11.50;99.90;;;;;;5050267;28;20538;-70
2021/05/22 09:56:18;;;;;;;3.07;1.33;;;11.40;99.90;;;;;;5015554;28;20539;-70
2021/05/22 09:58:47;;;;;;;1.10;0.97;;;11.30;99.90;;;;;;5051056;28;20458;-70
2021/05/22 10:01:15;;;;;;;2.20;1.10;;;11.20;99.90;;;;;;5050657;28;20430;-70
2021/05/22 10:03:43;;;;;;;3.90;1.10;;;11.20;99.90;;;;;;5050759;28;20419;-70
2021/05/22 10:06:10;;;;;;;1.17;1.07;;;11.20;99.90;;;;;;5050414;28;20466;-71
2021/05/22 10:12:10;;;;;;;3.53;1.27;;;11.50;99.90;;;;;;5050077;28;20386;-70
2021/05/22 10:14:38;;;;;;;3.17;1.20;;;11.60;99.90;;;;;;5050037;28;20466;-71
2021/05/22 10:17:08;;;;;;;6.10;1.20;;;11.90;99.90;;;;;;5050001;28;20469;-70
2021/05/22 10:19:36;;;;;;;10.57;1.73;;;11.90;99.90;;;;;;5050927;28;20442;-70
2021/05/22 10:22:05;;;;;;;9.67;2.00;;;12.00;99.90;;;;;;5049745;28;20438;-70
2021/05/22 10:24:32;;;;;;;3.03;1.20;;;12.00;99.90;;;;;;5048867;28;20450;-70
2021/05/22 10:26:59;;;;;;;3.63;1.00;;;12.20;99.90;;;;;;5041369;28;20463;-69
2021/05/22 10:29:32;;;;;;;7.17;1.10;;;12.30;99.90;;;;;;5049733;28;20462;-70
2021/05/22 10:31:59;;;;;;;2.17;1.10;;;12.00;99.90;;;;;;5049989;28;20504;-70
2021/05/22 10:34:28;;;;;;;1.87;1.00;;;11.60;99.90;;;;;;5049249;28;20443;-71
2021/05/22 10:36:58;;;;;;;6.40;1.43;;;11.70;99.90;;;;;;5047779;28;20449;-71
2021/05/22 10:39:36;;;;;;;3.43;1.13;;;11.60;99.90;;;;;;5050433;28;20950;-71
2021/05/22 10:42:04;;;;;;;4.70;1.10;;;11.60;99.90;;;;;;5050231;28;20437;-71
2021/05/22 10:44:33;;;;;;;1.10;0.90;;;11.80;99.90;;;;;;5050311;28;20553;-72
2021/05/22 10:47:12;;;;;;;5.97;1.60;;;12.00;99.90;;;;;;5050199;28;20872;-72
2021/05/22 10:49:56;;;;;;;3.13;1.90;;;12.10;99.90;;;;;;5049164;28;20565;-72
2021/05/22 10:52:25;;;;;;;3.67;1.73;;;12.30;99.90;;;;;;5049179;28;20874;-71
2021/05/22 10:55:06;;;;;;;2.67;1.10;;;12.50;99.90;;;;;;5050724;28;20434;-72
2021/05/22 10:57:57;;;;;;;2.60;1.07;;;12.60;99.90;;;;;;5050487;28;20489;-73
2021/05/22 11:00:25;;;;;;;2.60;1.30;;;12.60;99.90;;;;;;5047796;28;20443;-72
2021/05/22 11:02:53;;;;;;;1.73;0.90;;;12.40;99.90;;;;;;5049688;28;20450;-72
2021/05/22 11:05:39;;;;;;;1.30;0.80;;;12.20;99.90;;;;;;5050020;28;20909;-71
2021/05/22 11:08:30;;;;;;;1.30;1.00;;;12.60;99.90;;;;;;5050365;28;20492;-71
2021/05/22 11:11:00;;;;;;;1.10;1.00;;;13.10;99.90;;;;;;5050155;28;20482;-71
2021/05/22 11:13:39;;;;;;;6.20;1.40;;;13.30;99.90;;;;;;5049703;28;20443;-72
2021/05/22 11:16:08;;;;;;;2.57;1.30;;;13.30;99.90;;;;;;5049956;28;20505;-71
2021/05/22 11:18:58;;;;;;;2.00;1.17;;;13.00;99.90;;;;;;5050137;28;20447;-71
2021/05/22 11:21:26;;;;;;;1.63;0.97;;;13.10;99.90;;;;;;5052851;28;20458;-71
2021/05/22 11:24:10;;;;;;;3.57;1.33;;;13.30;99.90;;;;;;5052235;28;20468;-71
2021/05/22 11:26:57;;;;;;;1.33;0.90;;;13.30;99.90;;;;;;5053637;28;20536;-70
2021/05/22 11:30:00;;;;;;;2.17;1.10;;;13.60;99.90;;;;;;5053767;28;20561;-69
2021/05/22 11:32:51;;;;;;;4.00;1.30;;;13.60;99.90;;;;;;5053377;28;20460;-68
2021/05/22 11:35:43;;;;;;;3.57;1.40;;;13.60;99.90;;;;;;5033029;28;20919;-70
2021/05/22 11:38:38;;;;;;;2.70;1.40;;;13.40;99.90;;;;;;5033463;28;20511;-70
2021/05/22 11:41:27;;;;;;;3.53;1.67;;;13.60;99.90;;;;;;5033667;28;20432;-70
2021/05/22 11:44:06;;;;;;;1.63;1.03;;;14.10;99.90;;;;;;5045738;28;20432;-69
2021/05/22 11:46:32;;;;;;;6.00;1.33;;;14.30;99.90;;;;;;5053355;28;21110;-70
2021/05/22 11:48:59;;;;;;;2.07;1.10;;;14.40;99.90;;;;;;5053043;28;21003;-70
2021/05/22 11:51:28;;;;;;;1.40;0.97;;;14.40;99.90;;;;;;5051172;28;20439;-70
2021/05/22 11:53:58;;;;;;;1.23;0.80;;;14.60;99.90;;;;;;5052890;28;20846;-70
2021/05/22 11:56:25;;;;;;;4.20;1.13;;;14.00;99.90;;;;;;5052230;28;20553;-70
2021/05/22 11:58:54;;;;;;;2.20;0.80;;;14.30;99.90;;;;;;5052620;28;20473;-73
2021/05/22 12:01:22;;;;;;;1.67;0.77;;;14.60;99.90;;;;;;5052799;28;20437;-73
2021/05/22 12:03:50;;;;;;;3.13;1.10;;;14.70;99.90;;;;;;5052504;28;20936;-71
2021/05/22 12:06:25;;;;;;;1.53;1.00;;;14.50;99.90;;;;;;5052636;28;20478;-72
2021/05/22 12:09:07;;;;;;;2.60;0.90;;;14.70;99.90;;;;;;5052550;28;20492;-70
2021/05/22 12:11:36;;;;;;;3.90;1.03;;;14.90;99.90;;;;;;5050853;28;20466;-69
2021/05/22 12:14:05;;;;;;;1.90;0.80;;;14.60;99.90;;;;;;5051777;28;20447;-72
2021/05/22 12:16:37;;;;;;;2.83;1.10;;;14.90;99.90;;;;;;5052151;28;20447;-71
2021/05/22 12:19:16;;;;;;;1.63;1.10;;;15.30;99.90;;;;;;5049732;28;20423;-72
2021/05/22 12:21:49;;;;;;;1.10;0.87;;;15.30;99.90;;;;;;5046722;28;20439;-70
2021/05/22 12:24:17;;;;;;;5.27;1.20;;;15.50;99.90;;;;;;5049772;28;20530;-73
2021/05/22 12:26:50;;;;;;;2.60;1.00;;;15.30;99.90;;;;;;5051949;28;20959;-72
2021/05/22 12:29:18;;;;;;;5.90;1.20;;;15.20;99.90;;;;;;5049885;28;20505;-71
2021/05/22 12:31:50;;;;;;;1.10;0.90;;;15.50;99.90;;;;;;5050734;28;20428;-72
2021/05/22 12:34:24;;;;;;;2.13;1.10;;;15.90;99.90;;;;;;5048999;28;20441;-71
2021/05/22 12:36:59;;;;;;;1.77;0.90;;;16.00;99.90;;;;;;5050863;28;20516;-70
2021/05/22 12:39:32;;;;;;;4.23;1.10;;;15.70;99.90;;;;;;5050359;28;20428;-71
2021/05/22 12:41:59;;;;;;;2.10;0.73;;;15.50;99.90;;;;;;5046260;28;20432;-72
2021/05/22 12:44:26;;;;;;;2.60;0.97;;;15.30;99.90;;;;;;5050745;28;20428;-72
2021/05/22 12:46:58;;;;;;;2.83;1.10;;;15.40;99.90;;;;;;5051501;28;20968;-72
2021/05/22 12:49:31;;;;;;;1.10;0.80;;;15.40;99.90;;;;;;5049295;28;20466;-72
2021/05/22 12:52:23;;;;;;;4.10;1.10;;;15.20;99.90;;;;;;5050904;28;20436;-72
2021/05/22 12:54:52;;;;;;;5.03;1.03;;;14.90;99.90;;;;;;5051127;28;20522;-71
2021/05/22 12:57:20;;;;;;;1.80;0.67;;;15.30;99.90;;;;;;5050540;28;20473;-72
2021/05/22 13:00:09;;;;;;;1.97;0.70;;;15.20;99.90;;;;;;5051366;28;20954;-71
2021/05/22 13:02:37;;;;;;;1.73;0.80;;;14.80;99.90;;;;;;5051757;28;20463;-72
2021/05/22 13:05:35;;;;;;;5.23;1.03;;;14.70;99.90;;;;;;5051057;28;20447;-73
2021/05/22 13:08:03;;;;;;;3.20;1.27;;;14.40;99.90;;;;;;4974263;28;21001;-71